sensor_id;sensor_type;location;lat;lon;timestamp;pressure;altitude;pressure_sealevel;temperature;humidity
81686;BME280;71102;50.960;6.888;2023-10-09T00:00:49;101707.31;;;15.30;82.51
81686;BME280;71102;50.960;6.888;2023-10-09T00:03:14;101703.72;;;15.29;83.31
81686;BME280;71102;50.960;6.888;2023-10-09T00:05:39;101706.38;;;15.26;83.49
81686;BME280;71102;50.960;6.888;2023-10-09T00:08:05;101699.28;;;15.25;83.50
81686;BME280;71102;50.960;6.888;2023-10-09T00:10:30;101705.50;;;15.24;83.64
81686;BME280;71102;50.960;6.888;2023-10-09T00:12:55;101699.28;;;15.22;83.74
81686;BME280;71102;50.960;6.888;2023-10-09T00:15:21;101705.50;;;15.23;83.78
81686;BME280;71102;50.960;6.888;2023-10-09T00:17:46;101697.50;;;15.21;83.88
81686;BME280;71102;50.960;6.888;2023-10-09T00:20:11;101701.94;;;15.22;84.15
81686;BME280;71102;50.960;6.888;2023-10-09T00:22:37;101699.28;;;15.22;84.08
81686;BME280;71102;50.960;6.888;2023-10-09T00:25:02;101697.50;;;15.18;83.66
81686;BME280;71102;50.960;6.888;2023-10-09T00:27:28;101701.94;;;15.18;84.72
81686;BME280;71102;50.960;6.888;2023-10-09T00:29:53;101693.91;;;15.16;84.55
81686;BME280;71102;50.960;6.888;2023-10-09T00:32:18;101695.72;;;15.14;83.50
81686;BME280;71102;50.960;6.888;2023-10-09T00:34:43;101693.03;;;15.10;84.15
81686;BME280;71102;50.960;6.888;2023-10-09T00:37:09;101688.56;;;15.07;83.78
81686;BME280;71102;50.960;6.888;2023-10-09T00:39:34;101690.34;;;15.05;83.64
81686;BME280;71102;50.960;6.888;2023-10-09T00:42:00;101689.47;;;15.03;83.55
81686;BME280;71102;50.960;6.888;2023-10-09T00:44:25;101692.13;;;15.00;83.33
81686;BME280;71102;50.960;6.888;2023-10-09T00:46:50;101694.78;;;14.97;83.26
81686;BME280;71102;50.960;6.888;2023-10-09T00:49:16;101686.75;;;14.94;83.31
81686;BME280;71102;50.960;6.888;2023-10-09T00:51:44;101683.16;;;14.89;82.75
81686;BME280;71102;50.960;6.888;2023-10-09T00:54:12;101676.03;;;14.85;83.02
81686;BME280;71102;50.960;6.888;2023-10-09T00:56:37;101676.03;;;14.82;83.10
81686;BME280;71102;50.960;6.888;2023-10-09T00:59:03;101681.34;;;14.79;83.00
81686;BME280;71102;50.960;6.888;2023-10-09T01:01:28;101676.91;;;14.75;83.14
81686;BME280;71102;50.960;6.888;2023-10-09T01:03:54;101670.69;;;14.70;84.05
81686;BME280;71102;50.960;6.888;2023-10-09T01:06:19;101668.00;;;14.69;84.22
81686;BME280;71102;50.960;6.888;2023-10-09T01:08:44;101669.75;;;14.67;83.39
81686;BME280;71102;50.960;6.888;2023-10-09T01:11:11;101662.66;;;14.66;83.80
81686;BME280;71102;50.960;6.888;2023-10-09T01:13:37;101660.88;;;14.65;83.30
81686;BME280;71102;50.960;6.888;2023-10-09T01:16:07;101656.41;;;14.62;83.07
81686;BME280;71102;50.960;6.888;2023-10-09T01:18:32;101659.06;;;14.61;83.36
81686;BME280;71102;50.960;6.888;2023-10-09T01:20:58;101666.19;;;14.59;83.21
81686;BME280;71102;50.960;6.888;2023-10-09T01:23:23;101659.97;;;14.61;83.30
81686;BME280;71102;50.960;6.888;2023-10-09T01:25:48;101651.09;;;14.59;83.08
81686;BME280;71102;50.960;6.888;2023-10-09T01:28:14;101650.19;;;14.59;83.05
81686;BME280;71102;50.960;6.888;2023-10-09T01:30:39;101640.41;;;14.58;83.04
81686;BME280;71102;50.960;6.888;2023-10-09T01:33:04;101639.50;;;14.59;83.53
81686;BME280;71102;50.960;6.888;2023-10-09T01:35:30;101635.94;;;14.58;83.79
81686;BME280;71102;50.960;6.888;2023-10-09T01:37:55;101624.41;;;14.56;83.43
81686;BME280;71102;50.960;6.888;2023-10-09T01:40:20;101619.06;;;14.56;83.00
81686;BME280;71102;50.960;6.888;2023-10-09T01:42:46;101609.25;;;14.55;83.30
81686;BME280;71102;50.960;6.888;2023-10-09T01:45:12;101605.72;;;14.56;83.75
81686;BME280;71102;50.960;6.888;2023-10-09T01:47:37;101601.25;;;14.55;83.76
81686;BME280;71102;50.960;6.888;2023-10-09T01:50:07;101610.16;;;14.57;84.01
81686;BME280;71102;50.960;6.888;2023-10-09T01:52:32;101608.41;;;14.56;83.36
81686;BME280;71102;50.960;6.888;2023-10-09T01:54:57;101617.25;;;14.55;83.54
81686;BME280;71102;50.960;6.888;2023-10-09T01:57:23;101622.59;;;14.54;83.26
81686;BME280;71102;50.960;6.888;2023-10-09T01:59:49;101621.72;;;14.56;84.06
81686;BME280;71102;50.960;6.888;2023-10-09T02:02:17;101627.94;;;14.58;84.03
81686;BME280;71102;50.960;6.888;2023-10-09T02:04:43;101627.94;;;14.61;84.13
81686;BME280;71102;50.960;6.888;2023-10-09T02:07:08;101623.53;;;14.62;84.16
81686;BME280;71102;50.960;6.888;2023-10-09T02:09:35;101624.38;;;14.62;84.28
81686;BME280;71102;50.960;6.888;2023-10-09T02:12:01;101618.19;;;14.59;83.31
81686;BME280;71102;50.960;6.888;2023-10-09T02:14:26;101622.59;;;14.58;83.29
81686;BME280;71102;50.960;6.888;2023-10-09T02:16:52;101619.06;;;14.59;84.07
81686;BME280;71102;50.960;6.888;2023-10-09T02:19:17;101617.28;;;14.58;83.95
81686;BME280;71102;50.960;6.888;2023-10-09T02:21:42;101623.50;;;14.59;83.97
81686;BME280;71102;50.960;6.888;2023-10-09T02:24:08;101624.41;;;14.59;83.97
81686;BME280;71102;50.960;6.888;2023-10-09T02:26:33;101629.75;;;14.59;83.78
81686;BME280;71102;50.960;6.888;2023-10-09T02:28:58;101635.06;;;14.62;84.36
81686;BME280;71102;50.960;6.888;2023-10-09T02:31:26;101642.22;;;14.66;84.58
81686;BME280;71102;50.960;6.888;2023-10-09T02:33:52;101638.66;;;14.67;83.88
81686;BME280;71102;50.960;6.888;2023-10-09T02:36:17;101635.09;;;14.68;83.70
81686;BME280;71102;50.960;6.888;2023-10-09T02:38:42;101623.53;;;14.68;84.25
81686;BME280;71102;50.960;6.888;2023-10-09T02:41:08;101619.97;;;14.69;84.21
81686;BME280;71102;50.960;6.888;2023-10-09T02:43:35;101628.00;;;14.70;84.38
81686;BME280;71102;50.960;6.888;2023-10-09T02:46:01;101629.78;;;14.73;84.47
81686;BME280;71102;50.960;6.888;2023-10-09T02:48:26;101632.44;;;14.73;83.68
81686;BME280;71102;50.960;6.888;2023-10-09T02:50:51;101621.75;;;14.73;84.13
81686;BME280;71102;50.960;6.888;2023-10-09T02:53:17;101625.34;;;14.76;84.23
81686;BME280;71102;50.960;6.888;2023-10-09T02:55:42;101620.03;;;14.78;84.05
81686;BME280;71102;50.960;6.888;2023-10-09T02:58:07;101623.56;;;14.78;83.56
81686;BME280;71102;50.960;6.888;2023-10-09T03:00:33;101621.78;;;14.79;83.80
81686;BME280;71102;50.960;6.888;2023-10-09T03:02:59;101615.56;;;14.78;83.25
81686;BME280;71102;50.960;6.888;2023-10-09T03:05:25;101615.53;;;14.77;83.45
81686;BME280;71102;50.960;6.888;2023-10-09T03:07:50;101614.66;;;14.75;82.71
81686;BME280;71102;50.960;6.888;2023-10-09T03:10:15;101623.53;;;14.72;83.61
81686;BME280;71102;50.960;6.888;2023-10-09T03:12:41;101622.66;;;14.73;84.73
81686;BME280;71102;50.960;6.888;2023-10-09T03:15:06;101624.44;;;14.77;84.72
81686;BME280;71102;50.960;6.888;2023-10-09T03:17:32;101616.44;;;14.79;84.54
81686;BME280;71102;50.960;6.888;2023-10-09T03:19:57;101616.44;;;14.79;84.57
81686;BME280;71102;50.960;6.888;2023-10-09T03:22:23;101618.22;;;14.80;84.63
81686;BME280;71102;50.960;6.888;2023-10-09T03:24:48;101618.22;;;14.80;84.33
81686;BME280;71102;50.960;6.888;2023-10-09T03:27:13;101622.66;;;14.79;84.72
81686;BME280;71102;50.960;6.888;2023-10-09T03:29:38;101620.03;;;14.78;84.50
81686;BME280;71102;50.960;6.888;2023-10-09T03:32:04;101613.78;;;14.77;84.85
81686;BME280;71102;50.960;6.888;2023-10-09T03:34:29;101612.00;;;14.76;84.57
81686;BME280;71102;50.960;6.888;2023-10-09T03:36:54;101613.78;;;14.74;84.62
81686;BME280;71102;50.960;6.888;2023-10-09T03:39:20;101614.66;;;14.73;84.47
81686;BME280;71102;50.960;6.888;2023-10-09T03:41:45;101608.41;;;14.71;84.64
81686;BME280;71102;50.960;6.888;2023-10-09T03:44:10;101604.84;;;14.72;84.90
81686;BME280;71102;50.960;6.888;2023-10-09T03:46:35;101614.66;;;14.72;84.81
81686;BME280;71102;50.960;6.888;2023-10-09T03:49:01;101613.75;;;14.71;84.91
81686;BME280;71102;50.960;6.888;2023-10-09T03:51:29;101607.53;;;14.71;84.59
81686;BME280;71102;50.960;6.888;2023-10-09T03:53:55;101607.53;;;14.69;84.98
81686;BME280;71102;50.960;6.888;2023-10-09T03:56:20;101611.09;;;14.70;84.91
81686;BME280;71102;50.960;6.888;2023-10-09T03:58:48;101610.22;;;14.69;85.17
81686;BME280;71102;50.960;6.888;2023-10-09T04:01:16;101604.88;;;14.69;85.17
81686;BME280;71102;50.960;6.888;2023-10-09T04:03:41;101598.66;;;14.69;84.88
81686;BME280;71102;50.960;6.888;2023-10-09T04:06:07;101596.88;;;14.68;85.00
81686;BME280;71102;50.960;6.888;2023-10-09T04:08:32;101597.75;;;14.68;84.60
81686;BME280;71102;50.960;6.888;2023-10-09T04:10:57;101592.41;;;14.68;84.58
81686;BME280;71102;50.960;6.888;2023-10-09T04:13:22;101592.41;;;14.67;84.84
81686;BME280;71102;50.960;6.888;2023-10-09T04:15:50;101594.19;;;14.66;84.78
81686;BME280;71102;50.960;6.888;2023-10-09T04:18:15;101587.06;;;14.65;84.39
81686;BME280;71102;50.960;6.888;2023-10-09T04:20:41;101581.72;;;14.65;84.68
81686;BME280;71102;50.960;6.888;2023-10-09T04:23:07;101577.28;;;14.67;84.81
81686;BME280;71102;50.960;6.888;2023-10-09T04:25:32;101583.53;;;14.66;84.95
81686;BME280;71102;50.960;6.888;2023-10-09T04:27:59;101595.97;;;14.64;84.95
81686;BME280;71102;50.960;6.888;2023-10-09T04:30:26;101594.19;;;14.66;85.19
81686;BME280;71102;50.960;6.888;2023-10-09T04:32:51;101588.88;;;14.66;84.97
81686;BME280;71102;50.960;6.888;2023-10-09T04:35:16;101590.63;;;14.67;85.07
81686;BME280;71102;50.960;6.888;2023-10-09T04:37:42;101585.31;;;14.67;84.32
81686;BME280;71102;50.960;6.888;2023-10-09T04:40:08;101586.22;;;14.69;84.56
81686;BME280;71102;50.960;6.888;2023-10-09T04:42:34;101568.41;;;14.70;84.76
81686;BME280;71102;50.960;6.888;2023-10-09T04:44:59;101570.19;;;14.69;84.87
81686;BME280;71102;50.960;6.888;2023-10-09T04:47:26;101579.97;;;14.70;85.09
81686;BME280;71102;50.960;6.888;2023-10-09T04:49:52;101580.84;;;14.72;85.03
81686;BME280;71102;50.960;6.888;2023-10-09T04:52:18;101575.50;;;14.72;85.06
81686;BME280;71102;50.960;6.888;2023-10-09T04:54:44;101569.31;;;14.73;85.17
81686;BME280;71102;50.960;6.888;2023-10-09T04:57:09;101572.84;;;14.75;85.23
81686;BME280;71102;50.960;6.888;2023-10-09T04:59:35;101574.66;;;14.73;85.02
81686;BME280;71102;50.960;6.888;2023-10-09T05:02:00;101569.31;;;14.75;85.17
81686;BME280;71102;50.960;6.888;2023-10-09T05:04:25;101580.00;;;14.76;84.75
81686;BME280;71102;50.960;6.888;2023-10-09T05:06:51;101589.78;;;14.79;85.50
81686;BME280;71102;50.960;6.888;2023-10-09T05:09:16;101572.88;;;14.81;85.33
81686;BME280;71102;50.960;6.888;2023-10-09T05:11:41;101574.63;;;14.82;85.23
81686;BME280;71102;50.960;6.888;2023-10-09T05:14:06;101571.09;;;14.82;84.89
81686;BME280;71102;50.960;6.888;2023-10-09T05:16:32;101564.88;;;14.81;85.43
81686;BME280;71102;50.960;6.888;2023-10-09T05:18:57;101570.19;;;14.81;85.09
81686;BME280;71102;50.960;6.888;2023-10-09T05:21:30;101565.78;;;14.80;84.78
81686;BME280;71102;50.960;6.888;2023-10-09T05:23:56;101563.09;;;14.83;85.27
81686;BME280;71102;50.960;6.888;2023-10-09T05:26:21;101563.09;;;14.82;85.79
81686;BME280;71102;50.960;6.888;2023-10-09T05:28:46;101569.31;;;14.82;85.30
81686;BME280;71102;50.960;6.888;2023-10-09T05:31:12;101564.88;;;14.83;85.00
81686;BME280;71102;50.960;6.888;2023-10-09T05:33:37;101565.78;;;14.86;85.65
81686;BME280;71102;50.960;6.888;2023-10-09T05:36:05;101572.00;;;14.88;84.83
81686;BME280;71102;50.960;6.888;2023-10-09T05:38:32;101564.00;;;14.88;84.72
81686;BME280;71102;50.960;6.888;2023-10-09T05:40:57;101564.00;;;14.93;85.11
81686;BME280;71102;50.960;6.888;2023-10-09T05:43:22;101560.44;;;14.98;85.00
81686;BME280;71102;50.960;6.888;2023-10-09T05:45:48;101558.66;;;15.00;84.53
81686;BME280;71102;50.960;6.888;2023-10-09T05:48:13;101569.31;;;15.05;84.66
81686;BME280;71102;50.960;6.888;2023-10-09T05:50:39;101575.56;;;15.07;84.08
81686;BME280;71102;50.960;6.888;2023-10-09T05:53:04;101569.34;;;15.09;83.87
81686;BME280;71102;50.960;6.888;2023-10-09T05:55:30;101578.25;;;15.13;83.96
81686;BME280;71102;50.960;6.888;2023-10-09T05:57:56;101581.78;;;15.16;83.88
81686;BME280;71102;50.960;6.888;2023-10-09T06:00:22;101580.91;;;15.16;83.70
81686;BME280;71102;50.960;6.888;2023-10-09T06:02:48;101580.91;;;15.16;83.51
81686;BME280;71102;50.960;6.888;2023-10-09T06:05:13;101582.69;;;15.15;83.67
81686;BME280;71102;50.960;6.888;2023-10-09T06:07:38;101588.94;;;15.17;84.02
81686;BME280;71102;50.960;6.888;2023-10-09T06:10:04;101574.69;;;15.18;84.01
81686;BME280;71102;50.960;6.888;2023-10-09T06:12:30;101568.44;;;15.19;84.21
81686;BME280;71102;50.960;6.888;2023-10-09T06:14:55;101577.34;;;15.23;84.41
81686;BME280;71102;50.960;6.888;2023-10-09T06:17:20;101593.38;;;15.26;84.12
81686;BME280;71102;50.960;6.888;2023-10-09T06:19:45;101602.25;;;15.26;84.18
81686;BME280;71102;50.960;6.888;2023-10-09T06:22:11;101605.84;;;15.31;84.13
81686;BME280;71102;50.960;6.888;2023-10-09T06:24:36;101607.63;;;15.35;84.29
81686;BME280;71102;50.960;6.888;2023-10-09T06:27:02;101606.75;;;15.36;84.75
81686;BME280;71102;50.960;6.888;2023-10-09T06:29:28;101610.31;;;15.38;84.32
81686;BME280;71102;50.960;6.888;2023-10-09T06:31:54;101615.66;;;15.43;84.60
81686;BME280;71102;50.960;6.888;2023-10-09T06:34:19;101607.66;;;15.44;84.56
81686;BME280;71102;50.960;6.888;2023-10-09T06:36:45;101613.88;;;15.46;84.55
81686;BME280;71102;50.960;6.888;2023-10-09T06:39:10;101612.09;;;15.52;84.62
81686;BME280;71102;50.960;6.888;2023-10-09T06:41:35;101622.78;;;15.55;84.57
81686;BME280;71102;50.960;6.888;2023-10-09T06:44:01;101623.66;;;15.53;83.98
81686;BME280;71102;50.960;6.888;2023-10-09T06:46:26;101639.69;;;15.58;84.38
81686;BME280;71102;50.960;6.888;2023-10-09T06:48:51;101644.13;;;15.61;84.42
81686;BME280;71102;50.960;6.888;2023-10-09T06:51:16;101649.47;;;15.67;83.87
81686;BME280;71102;50.960;6.888;2023-10-09T06:53:42;101653.91;;;15.71;84.33
81686;BME280;71102;50.960;6.888;2023-10-09T06:56:07;101658.34;;;15.76;84.58
81686;BME280;71102;50.960;6.888;2023-10-09T06:58:33;101661.94;;;15.80;84.55
81686;BME280;71102;50.960;6.888;2023-10-09T07:00:58;101666.38;;;15.84;84.52
81686;BME280;71102;50.960;6.888;2023-10-09T07:03:32;101663.72;;;15.87;85.07
81686;BME280;71102;50.960;6.888;2023-10-09T07:06:07;101668.16;;;15.92;85.19
81686;BME280;71102;50.960;6.888;2023-10-09T07:08:32;101675.31;;;15.89;85.65
81686;BME280;71102;50.960;6.888;2023-10-09T07:11:00;101676.16;;;15.94;85.30
81686;BME280;71102;50.960;6.888;2023-10-09T07:13:26;101669.00;;;16.00;85.43
81686;BME280;71102;50.960;6.888;2023-10-09T07:15:51;101675.25;;;16.07;85.34
81686;BME280;71102;50.960;6.888;2023-10-09T07:18:16;101675.25;;;16.14;85.69
81686;BME280;71102;50.960;6.888;2023-10-09T07:20:42;101665.41;;;16.18;84.67
81686;BME280;71102;50.960;6.888;2023-10-09T07:23:07;101684.13;;;16.21;84.53
81686;BME280;71102;50.960;6.888;2023-10-09T07:25:32;101678.78;;;16.25;84.44
81686;BME280;71102;50.960;6.888;2023-10-09T07:27:58;101684.13;;;16.31;84.22
81686;BME280;71102;50.960;6.888;2023-10-09T07:30:23;101685.88;;;16.35;83.92
81686;BME280;71102;50.960;6.888;2023-10-09T07:32:48;101683.22;;;16.43;83.30
81686;BME280;71102;50.960;6.888;2023-10-09T07:35:14;101675.16;;;16.52;83.87
81686;BME280;71102;50.960;6.888;2023-10-09T07:37:39;101670.63;;;16.63;82.85
81686;BME280;71102;50.960;6.888;2023-10-09T07:40:05;101673.28;;;16.69;82.96
81686;BME280;71102;50.960;6.888;2023-10-09T07:42:30;101672.38;;;16.73;83.11
81686;BME280;71102;50.960;6.888;2023-10-09T07:44:56;101667.91;;;16.75;79.52
81686;BME280;71102;50.960;6.888;2023-10-09T07:47:21;101678.59;;;16.79;80.53
81686;BME280;71102;50.960;6.888;2023-10-09T07:49:47;101686.63;;;16.81;80.47
81686;BME280;71102;50.960;6.888;2023-10-09T07:52:12;101694.66;;;16.82;80.41
81686;BME280;71102;50.960;6.888;2023-10-09T07:54:37;101685.69;;;16.88;78.67
81686;BME280;71102;50.960;6.888;2023-10-09T07:57:03;101686.56;;;16.90;78.64
81686;BME280;71102;50.960;6.888;2023-10-09T07:59:28;101693.66;;;16.97;78.83
81686;BME280;71102;50.960;6.888;2023-10-09T08:01:53;101700.81;;;17.01;77.59
81686;BME280;71102;50.960;6.888;2023-10-09T08:04:19;101700.75;;;17.07;76.38
81686;BME280;71102;50.960;6.888;2023-10-09T08:06:45;101698.97;;;17.09;76.44
81686;BME280;71102;50.960;6.888;2023-10-09T08:09:11;101693.59;;;17.12;76.46
81686;BME280;71102;50.960;6.888;2023-10-09T08:11:36;101699.78;;;17.17;76.11
81686;BME280;71102;50.960;6.888;2023-10-09T08:14:02;101696.19;;;17.24;75.98
81686;BME280;71102;50.960;6.888;2023-10-09T08:16:27;101689.03;;;17.29;75.24
81686;BME280;71102;50.960;6.888;2023-10-09T08:18:52;101673.78;;;17.34;75.50
81686;BME280;71102;50.960;6.888;2023-10-09T08:21:18;101680.88;;;17.41;74.98
81686;BME280;71102;50.960;6.888;2023-10-09T08:23:44;101684.47;;;17.46;74.87
81686;BME280;71102;50.960;6.888;2023-10-09T08:26:09;101682.63;;;17.51;74.74
81686;BME280;71102;50.960;6.888;2023-10-09T08:28:34;101682.59;;;17.57;74.31
81686;BME280;71102;50.960;6.888;2023-10-09T08:31:00;101673.59;;;17.64;74.61
81686;BME280;71102;50.960;6.888;2023-10-09T08:33:25;101669.09;;;17.67;74.88
81686;BME280;71102;50.960;6.888;2023-10-09T08:35:50;101669.88;;;17.80;74.22
81686;BME280;71102;50.960;6.888;2023-10-09T08:38:17;101665.31;;;17.88;74.06
81686;BME280;71102;50.960;6.888;2023-10-09T08:40:43;101657.25;;;17.91;74.37
81686;BME280;71102;50.960;6.888;2023-10-09T08:43:11;101655.50;;;17.88;75.20
81686;BME280;71102;50.960;6.888;2023-10-09T08:45:39;101668.00;;;17.88;73.91
81686;BME280;71102;50.960;6.888;2023-10-09T08:48:08;101700.25;;;17.80;73.38
81686;BME280;71102;50.960;6.888;2023-10-09T08:50:35;101701.13;;;17.82;73.29
81686;BME280;71102;50.960;6.888;2023-10-09T08:53:01;101726.06;;;17.92;73.70
81686;BME280;71102;50.960;6.888;2023-10-09T08:55:26;101732.25;;;18.00;72.88
81686;BME280;71102;50.960;6.888;2023-10-09T08:57:52;101721.47;;;18.08;72.71
81686;BME280;71102;50.960;6.888;2023-10-09T09:00:18;101723.13;;;18.19;72.70
81686;BME280;71102;50.960;6.888;2023-10-09T09:02:43;101714.97;;;18.30;72.93
81686;BME280;71102;50.960;6.888;2023-10-09T09:05:16;101708.63;;;18.41;71.08
81686;BME280;71102;50.960;6.888;2023-10-09T09:07:42;101702.31;;;18.45;70.44
81686;BME280;71102;50.960;6.888;2023-10-09T09:10:07;101685.38;;;18.40;70.43
81686;BME280;71102;50.960;6.888;2023-10-09T09:12:33;101675.47;;;18.44;70.67
81686;BME280;71102;50.960;6.888;2023-10-09T09:14:59;101645.97;;;18.42;70.76
81686;BME280;71102;50.960;6.888;2023-10-09T09:17:32;101639.72;;;18.43;70.20
81686;BME280;71102;50.960;6.888;2023-10-09T09:19:57;101653.97;;;18.47;70.17
81686;BME280;71102;50.960;6.888;2023-10-09T09:22:23;101634.09;;;18.63;69.58
81686;BME280;71102;50.960;6.888;2023-10-09T09:24:58;101645.63;;;18.69;69.09
81686;BME280;71102;50.960;6.888;2023-10-09T09:27:43;101641.91;;;18.79;68.59
81686;BME280;71102;50.960;6.888;2023-10-09T09:30:22;101631.09;;;18.85;68.16
81686;BME280;71102;50.960;6.888;2023-10-09T09:32:47;101641.66;;;18.97;67.42
81686;BME280;71102;50.960;6.888;2023-10-09T09:35:13;101617.28;;;19.11;67.26
81686;BME280;71102;50.960;6.888;2023-10-09T09:37:38;101614.38;;;19.23;67.53
81686;BME280;71102;50.960;6.888;2023-10-09T09:40:04;101612.53;;;19.29;66.60
81686;BME280;71102;50.960;6.888;2023-10-09T09:42:29;101616.00;;;19.36;66.61
81686;BME280;71102;50.960;6.888;2023-10-09T09:44:58;101603.41;;;19.39;67.50
81686;BME280;71102;50.960;6.888;2023-10-09T09:47:26;101613.19;;;19.43;67.06
81686;BME280;71102;50.960;6.888;2023-10-09T09:49:52;101605.81;;;19.56;66.96
81686;BME280;71102;50.960;6.888;2023-10-09T09:52:18;101621.81;;;19.63;66.42
81686;BME280;71102;50.960;6.888;2023-10-09T09:54:43;101601.03;;;19.71;65.39
81686;BME280;71102;50.960;6.888;2023-10-09T09:57:09;101619.66;;;19.83;64.37
81686;BME280;71102;50.960;6.888;2023-10-09T09:59:40;101608.53;;;20.01;63.27
81686;BME280;71102;50.960;6.888;2023-10-09T10:02:10;101608.50;;;20.03;64.08
81686;BME280;71102;50.960;6.888;2023-10-09T10:04:39;101608.19;;;20.21;63.53
81686;BME280;71102;50.960;6.888;2023-10-09T10:07:08;101607.25;;;20.23;63.59
81686;BME280;71102;50.960;6.888;2023-10-09T10:12:00;101610.16;;;20.56;62.98
81686;BME280;71102;50.960;6.888;2023-10-09T10:17:17;101614.75;;;20.90;60.48
81686;BME280;71102;50.960;6.888;2023-10-09T10:22:23;101606.53;;;20.98;61.45
81686;BME280;71102;50.960;6.888;2023-10-09T10:24:48;101603.47;;;21.13;59.66
81686;BME280;71102;50.960;6.888;2023-10-09T10:29:39;101596.94;;;21.23;58.27
81686;BME280;71102;50.960;6.888;2023-10-09T10:32:04;101599.56;;;21.26;58.77
81686;BME280;71102;50.960;6.888;2023-10-09T10:37:13;101600.16;;;21.38;59.18
81686;BME280;71102;50.960;6.888;2023-10-09T10:39:59;101605.44;;;21.43;57.58
81686;BME280;71102;50.960;6.888;2023-10-09T10:42:25;101611.50;;;21.51;58.81
81686;BME280;71102;50.960;6.888;2023-10-09T10:44:50;101608.88;;;21.48;58.06
81686;BME280;71102;50.960;6.888;2023-10-09T10:47:25;101603.06;;;21.64;58.33
81686;BME280;71102;50.960;6.888;2023-10-09T10:49:52;101600.16;;;21.72;58.81
81686;BME280;71102;50.960;6.888;2023-10-09T10:52:22;101604.00;;;21.62;57.27
81686;BME280;71102;50.960;6.888;2023-10-09T10:54:48;101611.09;;;21.66;57.18
81686;BME280;71102;50.960;6.888;2023-10-09T10:57:20;101613.56;;;21.76;57.36
81686;BME280;71102;50.960;6.888;2023-10-09T10:59:46;101611.94;;;21.68;55.55
81686;BME280;71102;50.960;6.888;2023-10-09T11:02:12;101623.59;;;21.70;55.67
81686;BME280;71102;50.960;6.888;2023-10-09T11:04:37;101616.28;;;21.75;55.00
81686;BME280;71102;50.960;6.888;2023-10-09T11:07:04;101622.72;;;21.69;54.01
81686;BME280;71102;50.960;6.888;2023-10-09T11:09:42;101623.22;;;21.85;54.61
81686;BME280;71102;50.960;6.888;2023-10-09T11:12:08;101622.16;;;21.90;54.15
81686;BME280;71102;50.960;6.888;2023-10-09T11:14:33;101623.88;;;21.93;53.95
81686;BME280;71102;50.960;6.888;2023-10-09T11:16:59;101626.69;;;21.90;54.04
81686;BME280;71102;50.960;6.888;2023-10-09T11:19:25;101624.44;;;22.07;53.33
81686;BME280;71102;50.960;6.888;2023-10-09T11:21:51;101629.72;;;22.10;52.88
81686;BME280;71102;50.960;6.888;2023-10-09T11:24:17;101628.47;;;21.91;52.43
81686;BME280;71102;50.960;6.888;2023-10-09T11:26:42;101626.28;;;22.05;52.95
81686;BME280;71102;50.960;6.888;2023-10-09T11:29:17;101624.19;;;22.14;52.20
81686;BME280;71102;50.960;6.888;2023-10-09T11:34:29;101615.88;;;22.22;52.08
81686;BME280;71102;50.960;6.888;2023-10-09T11:37:03;101616.59;;;22.28;52.00
81686;BME280;71102;50.960;6.888;2023-10-09T11:39:31;101619.03;;;22.37;52.34
81686;BME280;71102;50.960;6.888;2023-10-09T11:42:04;101616.88;;;22.19;52.84
81686;BME280;71102;50.960;6.888;2023-10-09T11:44:41;101609.38;;;22.29;53.61
81686;BME280;71102;50.960;6.888;2023-10-09T11:47:07;101614.78;;;22.29;53.18
81686;BME280;71102;50.960;6.888;2023-10-09T11:49:32;101620.22;;;22.27;53.17
81686;BME280;71102;50.960;6.888;2023-10-09T11:52:08;101622.22;;;22.21;53.52
81686;BME280;71102;50.960;6.888;2023-10-09T11:54:35;101610.84;;;22.40;53.48
81686;BME280;71102;50.960;6.888;2023-10-09T11:57:01;101613.19;;;22.22;53.69
81686;BME280;71102;50.960;6.888;2023-10-09T11:59:30;101620.25;;;22.26;52.20
81686;BME280;71102;50.960;6.888;2023-10-09T12:01:55;101620.94;;;22.02;52.83
81686;BME280;71102;50.960;6.888;2023-10-09T12:04:21;101608.94;;;22.13;52.97
81686;BME280;71102;50.960;6.888;2023-10-09T12:06:46;101603.00;;;22.31;52.93
81686;BME280;71102;50.960;6.888;2023-10-09T12:09:11;101610.47;;;22.54;53.07
81686;BME280;71102;50.960;6.888;2023-10-09T12:11:37;101615.03;;;22.81;52.39
81686;BME280;71102;50.960;6.888;2023-10-09T12:14:02;101612.13;;;23.16;51.72
81686;BME280;71102;50.960;6.888;2023-10-09T12:16:27;101611.34;;;23.40;51.94
81686;BME280;71102;50.960;6.888;2023-10-09T12:18:54;101613.53;;;23.29;52.76
81686;BME280;71102;50.960;6.888;2023-10-09T12:21:20;101612.34;;;23.38;51.82
81686;BME280;71102;50.960;6.888;2023-10-09T12:23:45;101623.00;;;23.42;51.66
81686;BME280;71102;50.960;6.888;2023-10-09T12:26:11;101617.91;;;23.59;51.01
81686;BME280;71102;50.960;6.888;2023-10-09T12:28:36;101615.03;;;23.64;50.71
81686;BME280;71102;50.960;6.888;2023-10-09T12:31:01;101612.94;;;23.73;50.48
81686;BME280;71102;50.960;6.888;2023-10-09T12:33:28;101615.59;;;23.20;50.90
81686;BME280;71102;50.960;6.888;2023-10-09T12:35:55;101617.59;;;22.86;51.58
81686;BME280;71102;50.960;6.888;2023-10-09T12:38:20;101613.00;;;22.89;52.47
81686;BME280;71102;50.960;6.888;2023-10-09T12:40:45;101601.78;;;22.73;52.65
81686;BME280;71102;50.960;6.888;2023-10-09T12:43:11;101604.03;;;22.59;52.41
81686;BME280;71102;50.960;6.888;2023-10-09T12:45:36;101593.53;;;22.49;52.87
81686;BME280;71102;50.960;6.888;2023-10-09T12:48:01;101593.25;;;22.26;53.44
81686;BME280;71102;50.960;6.888;2023-10-09T12:50:27;101592.56;;;22.19;54.74
81686;BME280;71102;50.960;6.888;2023-10-09T12:53:00;101591.56;;;22.23;54.74
81686;BME280;71102;50.960;6.888;2023-10-09T12:55:25;101610.41;;;22.25;54.46
81686;BME280;71102;50.960;6.888;2023-10-09T12:57:50;101598.94;;;22.17;53.50
81686;BME280;71102;50.960;6.888;2023-10-09T13:00:16;101591.84;;;22.13;54.54